sensor_id;sensor_type;location;lat;lon;timestamp;P1;durP1;ratioP1;P2;durP2;ratioP2
75450;SDS011;64029;48.244;9.188;2023-04-03T00:01:26;7.50;;;5.23;;
75450;SDS011;64029;48.244;9.188;2023-04-03T00:03:53;7.37;;;6.23;;
75450;SDS011;64029;48.244;9.188;2023-04-03T00:06:20;7.43;;;5.67;;
75450;SDS011;64029;48.244;9.188;2023-04-03T00:08:47;9.60;;;5.63;;
75450;SDS011;64029;48.244;9.188;2023-04-03T00:11:15;7.00;;;5.80;;
75450;SDS011;64029;48.244;9.188;2023-04-03T00:13:44;5.27;;;4.83;;
75450;SDS011;64029;48.244;9.188;2023-04-03T00:16:11;6.10;;;5.23;;
75450;SDS011;64029;48.244;9.188;2023-04-03T00:18:38;6.23;;;5.63;;
75450;SDS011;64029;48.244;9.188;2023-04-03T00:21:06;6.57;;;5.50;;
75450;SDS011;64029;48.244;9.188;2023-04-03T00:23:33;7.43;;;5.97;;
75450;SDS011;64029;48.244;9.188;2023-04-03T00:26:00;5.43;;;4.83;;
75450;SDS011;64029;48.244;9.188;2023-04-03T00:28:28;6.43;;;4.83;;
75450;SDS011;64029;48.244;9.188;2023-04-03T00:30:56;7.97;;;5.53;;
75450;SDS011;64029;48.244;9.188;2023-04-03T00:33:23;5.60;;;4.63;;
75450;SDS011;64029;48.244;9.188;2023-04-03T00:35:50;7.87;;;5.00;;
75450;SDS011;64029;48.244;9.188;2023-04-03T00:38:17;5.23;;;4.73;;
75450;SDS011;64029;48.244;9.188;2023-04-03T00:40:45;9.20;;;5.67;;
75450;SDS011;64029;48.244;9.188;2023-04-03T00:43:14;6.00;;;4.80;;
75450;SDS011;64029;48.244;9.188;2023-04-03T00:45:43;5.80;;;5.20;;
75450;SDS011;64029;48.244;9.188;2023-04-03T00:48:13;5.03;;;4.53;;
75450;SDS011;64029;48.244;9.188;2023-04-03T00:50:43;6.40;;;4.47;;
75450;SDS011;64029;48.244;9.188;2023-04-03T00:53:11;6.00;;;5.20;;
75450;SDS011;64029;48.244;9.188;2023-04-03T00:55:40;5.67;;;5.17;;
75450;SDS011;64029;48.244;9.188;2023-04-03T00:58:09;5.20;;;4.70;;
75450;SDS011;64029;48.244;9.188;2023-04-03T01:00:38;4.63;;;4.20;;
75450;SDS011;64029;48.244;9.188;2023-04-03T01:03:08;5.97;;;5.00;;
75450;SDS011;64029;48.244;9.188;2023-04-03T01:05:36;5.00;;;4.50;;
75450;SDS011;64029;48.244;9.188;2023-04-03T01:08:04;7.27;;;4.60;;
75450;SDS011;64029;48.244;9.188;2023-04-03T01:10:31;5.83;;;5.27;;
75450;SDS011;64029;48.244;9.188;2023-04-03T01:12:58;6.00;;;4.80;;
75450;SDS011;64029;48.244;9.188;2023-04-03T01:15:26;5.93;;;5.30;;
75450;SDS011;64029;48.244;9.188;2023-04-03T01:17:55;6.10;;;5.20;;
75450;SDS011;64029;48.244;9.188;2023-04-03T01:23:48;5.73;;;5.13;;
75450;SDS011;64029;48.244;9.188;2023-04-03T01:26:24;5.23;;;4.43;;
75450;SDS011;64029;48.244;9.188;2023-04-03T01:28:53;6.10;;;5.43;;
75450;SDS011;64029;48.244;9.188;2023-04-03T01:31:22;6.30;;;5.10;;
75450;SDS011;64029;48.244;9.188;2023-04-03T01:33:52;6.33;;;5.73;;
75450;SDS011;64029;48.244;9.188;2023-04-03T01:36:20;6.00;;;5.40;;
75450;SDS011;64029;48.244;9.188;2023-04-03T01:38:49;6.90;;;6.00;;
75450;SDS011;64029;48.244;9.188;2023-04-03T01:41:17;6.60;;;5.87;;
75450;SDS011;64029;48.244;9.188;2023-04-03T01:43:45;7.67;;;6.00;;
75450;SDS011;64029;48.244;9.188;2023-04-03T01:46:12;7.53;;;5.80;;
75450;SDS011;64029;48.244;9.188;2023-04-03T01:48:39;9.00;;;6.43;;
75450;SDS011;64029;48.244;9.188;2023-04-03T01:51:08;6.63;;;5.90;;
75450;SDS011;64029;48.244;9.188;2023-04-03T01:53:35;8.73;;;5.77;;
75450;SDS011;64029;48.244;9.188;2023-04-03T01:56:02;7.03;;;6.33;;
75450;SDS011;64029;48.244;9.188;2023-04-03T01:58:29;6.57;;;5.87;;
75450;SDS011;64029;48.244;9.188;2023-04-03T02:00:56;7.63;;;6.40;;
75450;SDS011;64029;48.244;9.188;2023-04-03T02:03:23;7.13;;;5.50;;
75450;SDS011;64029;48.244;9.188;2023-04-03T02:05:50;6.87;;;6.17;;
75450;SDS011;64029;48.244;9.188;2023-04-03T02:08:18;7.13;;;5.47;;
75450;SDS011;64029;48.244;9.188;2023-04-03T02:10:46;6.70;;;5.60;;
75450;SDS011;64029;48.244;9.188;2023-04-03T02:13:13;7.57;;;6.63;;
75450;SDS011;64029;48.244;9.188;2023-04-03T02:15:40;8.07;;;6.70;;
75450;SDS011;64029;48.244;9.188;2023-04-03T02:18:07;7.57;;;6.77;;
75450;SDS011;64029;48.244;9.188;2023-04-03T02:20:34;10.10;;;6.17;;
75450;SDS011;64029;48.244;9.188;2023-04-03T02:23:01;7.40;;;6.60;;
75450;SDS011;64029;48.244;9.188;2023-04-03T02:25:31;9.00;;;6.90;;
75450;SDS011;64029;48.244;9.188;2023-04-03T02:27:58;8.10;;;6.27;;
75450;SDS011;64029;48.244;9.188;2023-04-03T02:30:25;8.60;;;6.63;;
75450;SDS011;64029;48.244;9.188;2023-04-03T02:32:52;7.00;;;6.30;;
75450;SDS011;64029;48.244;9.188;2023-04-03T02:35:19;7.90;;;6.10;;
75450;SDS011;64029;48.244;9.188;2023-04-03T02:37:46;7.80;;;5.90;;
75450;SDS011;64029;48.244;9.188;2023-04-03T02:40:13;9.70;;;6.73;;
75450;SDS011;64029;48.244;9.188;2023-04-03T02:42:42;7.87;;;6.47;;
75450;SDS011;64029;48.244;9.188;2023-04-03T02:45:09;9.40;;;6.47;;
75450;SDS011;64029;48.244;9.188;2023-04-03T02:47:36;8.40;;;6.63;;
75450;SDS011;64029;48.244;9.188;2023-04-03T02:50:03;9.07;;;6.93;;
75450;SDS011;64029;48.244;9.188;2023-04-03T02:52:30;9.50;;;7.13;;
75450;SDS011;64029;48.244;9.188;2023-04-03T02:54:57;8.30;;;6.30;;
75450;SDS011;64029;48.244;9.188;2023-04-03T02:57:24;9.40;;;7.30;;
75450;SDS011;64029;48.244;9.188;2023-04-03T02:59:52;9.47;;;7.00;;
75450;SDS011;64029;48.244;9.188;2023-04-03T03:02:19;8.10;;;7.20;;
75450;SDS011;64029;48.244;9.188;2023-04-03T03:04:46;8.70;;;6.70;;
75450;SDS011;64029;48.244;9.188;2023-04-03T03:07:12;10.53;;;7.50;;
75450;SDS011;64029;48.244;9.188;2023-04-03T03:09:39;7.33;;;6.17;;
75450;SDS011;64029;48.244;9.188;2023-04-03T03:12:06;8.10;;;6.80;;
75450;SDS011;64029;48.244;9.188;2023-04-03T03:14:33;10.23;;;7.17;;
75450;SDS011;64029;48.244;9.188;2023-04-03T03:17:01;10.40;;;7.17;;
75450;SDS011;64029;48.244;9.188;2023-04-03T03:19:28;7.87;;;6.80;;
75450;SDS011;64029;48.244;9.188;2023-04-03T03:21:55;7.57;;;6.50;;
75450;SDS011;64029;48.244;9.188;2023-04-03T03:24:22;8.70;;;6.90;;
75450;SDS011;64029;48.244;9.188;2023-04-03T03:26:49;7.00;;;5.53;;
75450;SDS011;64029;48.244;9.188;2023-04-03T03:29:15;6.83;;;6.23;;
75450;SDS011;64029;48.244;9.188;2023-04-03T03:31:42;6.40;;;5.80;;
75450;SDS011;64029;48.244;9.188;2023-04-03T03:34:12;7.53;;;6.27;;
75450;SDS011;64029;48.244;9.188;2023-04-03T03:36:39;8.00;;;6.60;;
75450;SDS011;64029;48.244;9.188;2023-04-03T03:39:06;8.23;;;6.33;;
75450;SDS011;64029;48.244;9.188;2023-04-03T03:41:33;7.47;;;6.43;;
75450;SDS011;64029;48.244;9.188;2023-04-03T03:43:59;8.43;;;6.37;;
75450;SDS011;64029;48.244;9.188;2023-04-03T03:46:26;7.30;;;5.87;;
75450;SDS011;64029;48.244;9.188;2023-04-03T03:48:53;5.33;;;4.60;;
75450;SDS011;64029;48.244;9.188;2023-04-03T03:51:21;5.83;;;4.80;;
75450;SDS011;64029;48.244;9.188;2023-04-03T03:53:48;5.90;;;5.30;;
75450;SDS011;64029;48.244;9.188;2023-04-03T03:56:15;4.33;;;3.93;;
75450;SDS011;64029;48.244;9.188;2023-04-03T03:58:42;4.77;;;4.30;;
75450;SDS011;64029;48.244;9.188;2023-04-03T04:01:09;6.60;;;4.27;;
75450;SDS011;64029;48.244;9.188;2023-04-03T04:03:36;4.10;;;3.60;;
75450;SDS011;64029;48.244;9.188;2023-04-03T04:06:03;5.30;;;4.80;;
75450;SDS011;64029;48.244;9.188;2023-04-03T04:08:31;4.23;;;3.83;;
75450;SDS011;64029;48.244;9.188;2023-04-03T04:10:58;4.27;;;3.83;;
75450;SDS011;64029;48.244;9.188;2023-04-03T04:13:25;4.10;;;3.70;;
75450;SDS011;64029;48.244;9.188;2023-04-03T04:15:51;6.27;;;4.53;;
75450;SDS011;64029;48.244;9.188;2023-04-03T04:18:18;4.53;;;4.07;;
75450;SDS011;64029;48.244;9.188;2023-04-03T04:20:47;6.57;;;4.70;;
75450;SDS011;64029;48.244;9.188;2023-04-03T04:23:15;7.13;;;4.57;;
75450;SDS011;64029;48.244;9.188;2023-04-03T04:25:45;6.33;;;5.20;;
75450;SDS011;64029;48.244;9.188;2023-04-03T04:28:12;7.23;;;5.27;;
75450;SDS011;64029;48.244;9.188;2023-04-03T04:30:38;4.90;;;4.40;;
75450;SDS011;64029;48.244;9.188;2023-04-03T04:33:05;4.60;;;4.07;;
75450;SDS011;64029;48.244;9.188;2023-04-03T04:35:32;4.80;;;3.90;;
75450;SDS011;64029;48.244;9.188;2023-04-03T04:38:00;5.60;;;4.60;;
75450;SDS011;64029;48.244;9.188;2023-04-03T04:40:27;5.43;;;4.43;;
75450;SDS011;64029;48.244;9.188;2023-04-03T04:42:55;6.40;;;4.60;;
75450;SDS011;64029;48.244;9.188;2023-04-03T04:45:22;5.63;;;4.93;;
75450;SDS011;64029;48.244;9.188;2023-04-03T04:47:49;6.50;;;4.60;;
75450;SDS011;64029;48.244;9.188;2023-04-03T04:50:17;6.97;;;4.93;;
75450;SDS011;64029;48.244;9.188;2023-04-03T04:52:44;6.50;;;4.53;;
75450;SDS011;64029;48.244;9.188;2023-04-03T04:55:11;5.53;;;4.70;;
75450;SDS011;64029;48.244;9.188;2023-04-03T04:57:38;5.13;;;4.63;;
75450;SDS011;64029;48.244;9.188;2023-04-03T05:00:07;5.60;;;4.70;;
75450;SDS011;64029;48.244;9.188;2023-04-03T05:02:35;7.30;;;5.10;;
75450;SDS011;64029;48.244;9.188;2023-04-03T05:05:01;5.17;;;4.67;;
75450;SDS011;64029;48.244;9.188;2023-04-03T05:07:28;5.20;;;4.70;;
75450;SDS011;64029;48.244;9.188;2023-04-03T05:09:55;6.80;;;5.73;;
75450;SDS011;64029;48.244;9.188;2023-04-03T05:12:22;4.50;;;4.10;;
75450;SDS011;64029;48.244;9.188;2023-04-03T05:14:49;7.00;;;4.80;;
75450;SDS011;64029;48.244;9.188;2023-04-03T05:17:17;6.00;;;5.37;;
75450;SDS011;64029;48.244;9.188;2023-04-03T05:19:44;5.70;;;4.80;;
75450;SDS011;64029;48.244;9.188;2023-04-03T05:22:11;5.53;;;4.20;;
75450;SDS011;64029;48.244;9.188;2023-04-03T05:24:38;4.87;;;3.83;;
75450;SDS011;64029;48.244;9.188;2023-04-03T05:27:08;4.60;;;4.20;;
75450;SDS011;64029;48.244;9.188;2023-04-03T05:29:34;4.00;;;3.70;;
75450;SDS011;64029;48.244;9.188;2023-04-03T05:32:01;5.40;;;3.90;;
75450;SDS011;64029;48.244;9.188;2023-04-03T05:34:30;5.67;;;3.97;;
75450;SDS011;64029;48.244;9.188;2023-04-03T05:36:57;5.30;;;4.33;;
75450;SDS011;64029;48.244;9.188;2023-04-03T05:39:24;4.70;;;3.80;;
75450;SDS011;64029;48.244;9.188;2023-04-03T05:41:51;3.43;;;3.13;;
75450;SDS011;64029;48.244;9.188;2023-04-03T05:44:17;5.10;;;3.43;;
75450;SDS011;64029;48.244;9.188;2023-04-03T05:46:44;4.00;;;3.67;;
75450;SDS011;64029;48.244;9.188;2023-04-03T05:49:11;5.00;;;3.13;;
75450;SDS011;64029;48.244;9.188;2023-04-03T05:51:39;5.47;;;3.50;;
75450;SDS011;64029;48.244;9.188;2023-04-03T05:54:08;4.53;;;3.30;;
75450;SDS011;64029;48.244;9.188;2023-04-03T05:56:38;4.20;;;3.60;;
75450;SDS011;64029;48.244;9.188;2023-04-03T05:59:05;3.40;;;3.10;;
75450;SDS011;64029;48.244;9.188;2023-04-03T06:01:32;2.63;;;2.43;;
75450;SDS011;64029;48.244;9.188;2023-04-03T06:03:59;3.00;;;2.70;;
75450;SDS011;64029;48.244;9.188;2023-04-03T06:06:26;3.80;;;3.00;;
75450;SDS011;64029;48.244;9.188;2023-04-03T06:09:11;3.70;;;2.90;;
75450;SDS011;64029;48.244;9.188;2023-04-03T06:11:38;2.90;;;2.70;;
75450;SDS011;64029;48.244;9.188;2023-04-03T06:14:05;4.13;;;3.17;;
75450;SDS011;64029;48.244;9.188;2023-04-03T06:16:33;3.50;;;2.57;;
75450;SDS011;64029;48.244;9.188;2023-04-03T06:19:00;4.03;;;3.50;;
75450;SDS011;64029;48.244;9.188;2023-04-03T06:21:27;3.20;;;3.00;;
75450;SDS011;64029;48.244;9.188;2023-04-03T06:23:55;4.17;;;2.83;;
75450;SDS011;64029;48.244;9.188;2023-04-03T06:26:22;5.00;;;3.73;;
75450;SDS011;64029;48.244;9.188;2023-04-03T06:28:49;5.43;;;3.90;;
75450;SDS011;64029;48.244;9.188;2023-04-03T06:31:16;4.20;;;3.67;;
75450;SDS011;64029;48.244;9.188;2023-04-03T06:33:43;6.33;;;3.80;;
75450;SDS011;64029;48.244;9.188;2023-04-03T06:36:10;4.47;;;3.30;;
75450;SDS011;64029;48.244;9.188;2023-04-03T06:38:38;3.87;;;3.50;;
75450;SDS011;64029;48.244;9.188;2023-04-03T06:41:06;4.83;;;3.07;;
75450;SDS011;64029;48.244;9.188;2023-04-03T06:43:33;3.40;;;3.10;;
75450;SDS011;64029;48.244;9.188;2023-04-03T06:46:00;3.13;;;2.70;;
75450;SDS011;64029;48.244;9.188;2023-04-03T06:48:27;3.93;;;2.73;;
75450;SDS011;64029;48.244;9.188;2023-04-03T06:50:54;3.50;;;3.20;;
75450;SDS011;64029;48.244;9.188;2023-04-03T06:53:21;4.03;;;3.33;;
75450;SDS011;64029;48.244;9.188;2023-04-03T06:55:47;3.73;;;3.20;;
75450;SDS011;64029;48.244;9.188;2023-04-03T06:58:16;2.50;;;2.27;;
75450;SDS011;64029;48.244;9.188;2023-04-03T07:00:43;3.57;;;3.00;;
75450;SDS011;64029;48.244;9.188;2023-04-03T07:03:10;3.00;;;2.70;;
75450;SDS011;64029;48.244;9.188;2023-04-03T07:05:37;3.90;;;3.50;;
75450;SDS011;64029;48.244;9.188;2023-04-03T07:08:04;3.50;;;3.07;;
75450;SDS011;64029;48.244;9.188;2023-04-03T07:10:31;4.13;;;2.63;;
75450;SDS011;64029;48.244;9.188;2023-04-03T07:12:58;3.03;;;2.73;;
75450;SDS011;64029;48.244;9.188;2023-04-03T07:15:27;4.70;;;3.10;;
75450;SDS011;64029;48.244;9.188;2023-04-03T07:17:54;3.47;;;3.17;;
75450;SDS011;64029;48.244;9.188;2023-04-03T07:20:21;2.90;;;2.70;;
75450;SDS011;64029;48.244;9.188;2023-04-03T07:22:48;3.37;;;3.00;;
75450;SDS011;64029;48.244;9.188;2023-04-03T07:25:15;2.70;;;2.50;;
75450;SDS011;64029;48.244;9.188;2023-04-03T07:27:42;3.50;;;3.00;;
75450;SDS011;64029;48.244;9.188;2023-04-03T07:30:09;3.70;;;3.10;;
75450;SDS011;64029;48.244;9.188;2023-04-03T07:32:40;3.40;;;2.73;;
75450;SDS011;64029;48.244;9.188;2023-04-03T07:35:07;3.50;;;2.53;;
75450;SDS011;64029;48.244;9.188;2023-04-03T07:37:34;3.33;;;2.97;;
75450;SDS011;64029;48.244;9.188;2023-04-03T07:40:01;3.40;;;3.10;;
75450;SDS011;64029;48.244;9.188;2023-04-03T07:42:29;4.13;;;3.30;;
75450;SDS011;64029;48.244;9.188;2023-04-03T07:44:56;3.70;;;3.30;;
75450;SDS011;64029;48.244;9.188;2023-04-03T07:47:23;6.70;;;2.83;;
75450;SDS011;64029;48.244;9.188;2023-04-03T07:49:52;3.93;;;2.93;;
75450;SDS011;64029;48.244;9.188;2023-04-03T07:52:19;3.57;;;3.17;;
75450;SDS011;64029;48.244;9.188;2023-04-03T07:54:46;4.00;;;3.27;;
75450;SDS011;64029;48.244;9.188;2023-04-03T07:57:13;3.10;;;2.80;;
75450;SDS011;64029;48.244;9.188;2023-04-03T07:59:39;4.20;;;3.40;;
75450;SDS011;64029;48.244;9.188;2023-04-03T08:02:08;4.63;;;2.80;;
75450;SDS011;64029;48.244;9.188;2023-04-03T08:04:35;3.50;;;3.20;;
75450;SDS011;64029;48.244;9.188;2023-04-03T08:07:04;4.30;;;3.07;;
75450;SDS011;64029;48.244;9.188;2023-04-03T08:09:31;3.30;;;3.00;;
75450;SDS011;64029;48.244;9.188;2023-04-03T08:11:58;4.70;;;3.23;;
75450;SDS011;64029;48.244;9.188;2023-04-03T08:14:24;3.20;;;2.73;;
75450;SDS011;64029;48.244;9.188;2023-04-03T08:16:51;4.60;;;3.10;;
75450;SDS011;64029;48.244;9.188;2023-04-03T08:19:18;3.70;;;3.00;;
75450;SDS011;64029;48.244;9.188;2023-04-03T08:21:45;3.00;;;2.70;;
75450;SDS011;64029;48.244;9.188;2023-04-03T08:24:13;4.63;;;3.07;;
75450;SDS011;64029;48.244;9.188;2023-04-03T08:26:40;3.60;;;3.30;;
75450;SDS011;64029;48.244;9.188;2023-04-03T08:29:07;4.87;;;3.40;;
75450;SDS011;64029;48.244;9.188;2023-04-03T08:31:34;3.63;;;3.20;;
75450;SDS011;64029;48.244;9.188;2023-04-03T08:34:00;4.10;;;3.07;;
75450;SDS011;64029;48.244;9.188;2023-04-03T08:36:28;4.30;;;3.37;;
75450;SDS011;64029;48.244;9.188;2023-04-03T08:38:56;5.30;;;3.30;;
75450;SDS011;64029;48.244;9.188;2023-04-03T08:41:27;3.47;;;3.17;;
75450;SDS011;64029;48.244;9.188;2023-04-03T08:43:59;3.80;;;3.33;;
75450;SDS011;64029;48.244;9.188;2023-04-03T08:46:33;3.50;;;3.00;;
75450;SDS011;64029;48.244;9.188;2023-04-03T08:49:10;4.13;;;3.10;;
75450;SDS011;64029;48.244;9.188;2023-04-03T08:51:46;3.93;;;3.60;;
75450;SDS011;64029;48.244;9.188;2023-04-03T08:54:19;3.27;;;2.97;;
75450;SDS011;64029;48.244;9.188;2023-04-03T08:56:55;4.40;;;3.63;;
75450;SDS011;64029;48.244;9.188;2023-04-03T08:59:25;4.67;;;4.00;;
75450;SDS011;64029;48.244;9.188;2023-04-03T09:01:56;4.37;;;3.60;;
75450;SDS011;64029;48.244;9.188;2023-04-03T09:04:27;5.30;;;4.57;;
75450;SDS011;64029;48.244;9.188;2023-04-03T09:06:58;4.60;;;4.17;;
75450;SDS011;64029;48.244;9.188;2023-04-03T09:09:30;4.17;;;3.80;;
75450;SDS011;64029;48.244;9.188;2023-04-03T09:12:03;7.50;;;3.27;;
75450;SDS011;64029;48.244;9.188;2023-04-03T09:14:37;4.93;;;4.43;;
75450;SDS011;64029;48.244;9.188;2023-04-03T09:17:09;5.00;;;4.10;;
75450;SDS011;64029;48.244;9.188;2023-04-03T09:19:44;3.60;;;3.30;;
75450;SDS011;64029;48.244;9.188;2023-04-03T09:22:17;4.07;;;3.67;;
75450;SDS011;64029;48.244;9.188;2023-04-03T09:24:50;3.20;;;3.00;;
75450;SDS011;64029;48.244;9.188;2023-04-03T09:27:26;3.83;;;3.13;;
75450;SDS011;64029;48.244;9.188;2023-04-03T09:29:54;3.40;;;3.10;;
75450;SDS011;64029;48.244;9.188;2023-04-03T09:32:25;4.23;;;3.47;;
75450;SDS011;64029;48.244;9.188;2023-04-03T09:34:53;7.50;;;3.37;;
75450;SDS011;64029;48.244;9.188;2023-04-03T09:37:33;5.80;;;3.27;;
75450;SDS011;64029;48.244;9.188;2023-04-03T09:40:02;3.63;;;3.13;;
75450;SDS011;64029;48.244;9.188;2023-04-03T09:42:31;4.10;;;3.70;;
75450;SDS011;64029;48.244;9.188;2023-04-03T09:44:59;5.67;;;2.80;;
75450;SDS011;64029;48.244;9.188;2023-04-03T09:47:28;5.97;;;3.17;;
75450;SDS011;64029;48.244;9.188;2023-04-03T09:50:08;3.17;;;2.87;;
75450;SDS011;64029;48.244;9.188;2023-04-03T09:52:47;4.47;;;3.30;;
75450;SDS011;64029;48.244;9.188;2023-04-03T09:55:17;3.70;;;3.40;;
75450;SDS011;64029;48.244;9.188;2023-04-03T09:57:48;3.60;;;3.30;;
75450;SDS011;64029;48.244;9.188;2023-04-03T10:00:23;2.70;;;2.50;;
75450;SDS011;64029;48.244;9.188;2023-04-03T10:02:52;3.90;;;3.00;;
75450;SDS011;64029;48.244;9.188;2023-04-03T10:05:25;4.33;;;3.03;;
75450;SDS011;64029;48.244;9.188;2023-04-03T10:08:06;3.43;;;2.80;;
75450;SDS011;64029;48.244;9.188;2023-04-03T10:10:35;3.70;;;3.13;;
75450;SDS011;64029;48.244;9.188;2023-04-03T10:13:05;3.60;;;2.90;;
75450;SDS011;64029;48.244;9.188;2023-04-03T10:15:36;3.53;;;3.23;;
75450;SDS011;64029;48.244;9.188;2023-04-03T10:18:10;4.60;;;2.80;;
75450;SDS011;64029;48.244;9.188;2023-04-03T10:20:51;3.13;;;2.93;;
75450;SDS011;64029;48.244;9.188;2023-04-03T10:23:21;5.27;;;3.77;;
75450;SDS011;64029;48.244;9.188;2023-04-03T10:25:57;3.20;;;2.87;;
75450;SDS011;64029;48.244;9.188;2023-04-03T10:28:38;3.43;;;2.53;;
75450;SDS011;64029;48.244;9.188;2023-04-03T10:31:13;4.30;;;3.80;;
75450;SDS011;64029;48.244;9.188;2023-04-03T10:33:46;3.77;;;3.10;;
75450;SDS011;64029;48.244;9.188;2023-04-03T10:36:27;3.10;;;2.80;;
75450;SDS011;64029;48.244;9.188;2023-04-03T10:39:04;5.30;;;2.90;;
75450;SDS011;64029;48.244;9.188;2023-04-03T10:41:43;3.97;;;2.90;;
75450;SDS011;64029;48.244;9.188;2023-04-03T10:44:23;3.73;;;2.90;;
75450;SDS011;64029;48.244;9.188;2023-04-03T10:47:00;3.47;;;2.40;;
75450;SDS011;64029;48.244;9.188;2023-04-03T10:49:35;2.93;;;2.67;;
75450;SDS011;64029;48.244;9.188;2023-04-03T10:52:13;3.97;;;2.60;;
75450;SDS011;64029;48.244;9.188;2023-04-03T10:54:45;3.00;;;2.40;;
75450;SDS011;64029;48.244;9.188;2023-04-03T10:57:18;4.00;;;2.83;;
75450;SDS011;64029;48.244;9.188;2023-04-03T10:59:47;3.00;;;2.57;;
75450;SDS011;64029;48.244;9.188;2023-04-03T11:02:19;2.57;;;2.37;;
75450;SDS011;64029;48.244;9.188;2023-04-03T11:04:51;3.97;;;2.67;;
75450;SDS011;64029;48.244;9.188;2023-04-03T11:07:21;6.33;;;3.30;;
75450;SDS011;64029;48.244;9.188;2023-04-03T11:09:52;5.30;;;2.83;;
75450;SDS011;64029;48.244;9.188;2023-04-03T11:12:24;2.97;;;2.77;;
75450;SDS011;64029;48.244;9.188;2023-04-03T11:15:01;3.50;;;3.20;;
75450;SDS011;64029;48.244;9.188;2023-04-03T11:17:31;3.40;;;3.10;;
75450;SDS011;64029;48.244;9.188;2023-04-03T11:20:04;3.30;;;3.00;;
75450;SDS011;64029;48.244;9.188;2023-04-03T11:22:38;4.00;;;3.00;;
75450;SDS011;64029;48.244;9.188;2023-04-03T11:25:14;3.83;;;3.13;;
75450;SDS011;64029;48.244;9.188;2023-04-03T11:27:47;3.93;;;3.23;;
75450;SDS011;64029;48.244;9.188;2023-04-03T11:30:19;3.83;;;3.00;;
75450;SDS011;64029;48.244;9.188;2023-04-03T11:32:51;4.50;;;2.73;;
75450;SDS011;64029;48.244;9.188;2023-04-03T11:35:30;5.60;;;3.03;;
75450;SDS011;64029;48.244;9.188;2023-04-03T11:37:58;3.40;;;2.93;;
75450;SDS011;64029;48.244;9.188;2023-04-03T11:40:28;2.63;;;2.27;;
75450;SDS011;64029;48.244;9.188;2023-04-03T11:43:02;3.63;;;3.27;;
75450;SDS011;64029;48.244;9.188;2023-04-03T11:45:37;4.17;;;2.80;;
75450;SDS011;64029;48.244;9.188;2023-04-03T12:03:32;3.90;;;2.90;;
75450;SDS011;64029;48.244;9.188;2023-04-03T12:09:24;3.37;;;2.77;;
75450;SDS011;64029;48.244;9.188;2023-04-03T12:11:55;3.90;;;3.43;;
75450;SDS011;64029;48.244;9.188;2023-04-03T12:14:23;4.97;;;3.70;;
75450;SDS011;64029;48.244;9.188;2023-04-03T12:16:53;3.23;;;2.93;;
75450;SDS011;64029;48.244;9.188;2023-04-03T12:19:34;3.73;;;3.50;;
75450;SDS011;64029;48.244;9.188;2023-04-03T12:22:06;3.83;;;3.37;;
75450;SDS011;64029;48.244;9.188;2023-04-03T12:24:38;4.67;;;4.23;;
75450;SDS011;64029;48.244;9.188;2023-04-03T12:30:07;4.60;;;3.27;;
75450;SDS011;64029;48.244;9.188;2023-04-03T12:32:51;4.63;;;3.40;;
75450;SDS011;64029;48.244;9.188;2023-04-03T12:35:31;5.63;;;2.93;;
75450;SDS011;64029;48.244;9.188;2023-04-03T12:38:15;3.37;;;3.00;;
75450;SDS011;64029;48.244;9.188;2023-04-03T12:41:21;3.00;;;2.80;;
75450;SDS011;64029;48.244;9.188;2023-04-03T12:44:06;8.27;;;2.83;;
75450;SDS011;64029;48.244;9.188;2023-04-03T12:46:52;3.80;;;3.50;;
75450;SDS011;64029;48.244;9.188;2023-04-03T12:49:26;3.53;;;3.13;;
75450;SDS011;64029;48.244;9.188;2023-04-03T12:52:02;3.90;;;3.20;;
75450;SDS011;64029;48.244;9.188;2023-04-03T12:54:32;3.13;;;2.77;;
75450;SDS011;64029;48.244;9.188;2023-04-03T12:57:08;4.30;;;3.30;;
75450;SDS011;64029;48.244;9.188;2023-04-03T12:59:36;5.07;;;3.30;;
75450;SDS011;64029;48.244;9.188;2023-04-03T13:02:10;3.60;;;3.13;;
75450;SDS011;64029;48.244;9.188;2023-04-03T13:04:51;3.10;;;2.80;;
75450;SDS011;64029;48.244;9.188;2023-04-03T13:07:20;4.20;;;3.30;;
75450;SDS011;64029;48.244;9.188;2023-04-03T13:09:57;3.57;;;3.27;;
75450;SDS011;64029;48.244;9.188;2023-04-03T13:12:26;3.90;;;2.90;;
75450;SDS011;64029;48.244;9.188;2023-04-03T13:14:55;5.77;;;3.17;;
75450;SDS011;64029;48.244;9.188;2023-04-03T13:17:24;3.30;;;3.00;;
75450;SDS011;64029;48.244;9.188;2023-04-03T13:19:54;4.33;;;3.40;;
75450;SDS011;64029;48.244;9.188;2023-04-03T13:22:24;3.40;;;3.10;;
75450;SDS011;64029;48.244;9.188;2023-04-03T13:24:55;3.47;;;3.17;;
75450;SDS011;64029;48.244;9.188;2023-04-03T13:27:27;3.00;;;2.80;;
75450;SDS011;64029;48.244;9.188;2023-04-03T13:29:57;2.80;;;2.60;;
75450;SDS011;64029;48.244;9.188;2023-04-03T13:32:27;3.40;;;3.10;;
75450;SDS011;64029;48.244;9.188;2023-04-03T13:34:58;3.17;;;2.87;;
75450;SDS011;64029;48.244;9.188;2023-04-03T13:37:27;5.33;;;2.77;;
75450;SDS011;64029;48.244;9.188;2023-04-03T13:40:03;7.30;;;3.27;;
75450;SDS011;64029;48.244;9.188;2023-04-03T13:42:37;3.40;;;3.10;;
75450;SDS011;64029;48.244;9.188;2023-04-03T13:45:22;5.50;;;3.03;;
75450;SDS011;64029;48.244;9.188;2023-04-03T13:47:53;4.43;;;3.47;;
75450;SDS011;64029;48.244;9.188;2023-04-03T13:50:41;3.60;;;3.23;;
75450;SDS011;64029;48.244;9.188;2023-04-03T13:53:18;3.40;;;3.10;;
75450;SDS011;64029;48.244;9.188;2023-04-03T13:55:53;6.80;;;4.03;;
75450;SDS011;64029;48.244;9.188;2023-04-03T13:58:24;3.90;;;3.30;;
75450;SDS011;64029;48.244;9.188;2023-04-03T14:00:53;5.73;;;4.00;;
75450;SDS011;64029;48.244;9.188;2023-04-03T14:03:21;4.37;;;3.13;;
75450;SDS011;64029;48.244;9.188;2023-04-03T14:05:51;4.83;;;3.83;;
75450;SDS011;64029;48.244;9.188;2023-04-03T14:08:18;5.20;;;3.67;;
75450;SDS011;64029;48.244;9.188;2023-04-03T14:10:46;6.00;;;3.70;;
75450;SDS011;64029;48.244;9.188;2023-04-03T14:13:15;4.30;;;3.90;;
75450;SDS011;64029;48.244;9.188;2023-04-03T14:15:44;3.63;;;3.33;;
75450;SDS011;64029;48.244;9.188;2023-04-03T14:18:14;3.90;;;3.30;;
75450;SDS011;64029;48.244;9.188;2023-04-03T14:20:43;3.77;;;3.47;;
75450;SDS011;64029;48.244;9.188;2023-04-03T14:23:12;5.07;;;3.60;;
75450;SDS011;64029;48.244;9.188;2023-04-03T14:25:39;4.07;;;3.30;;
75450;SDS011;64029;48.244;9.188;2023-04-03T14:28:12;5.10;;;3.83;;
75450;SDS011;64029;48.244;9.188;2023-04-03T14:30:42;4.80;;;3.47;;
75450;SDS011;64029;48.244;9.188;2023-04-03T14:33:10;3.50;;;2.97;;
75450;SDS011;64029;48.244;9.188;2023-04-03T14:35:39;5.13;;;3.37;;
75450;SDS011;64029;48.244;9.188;2023-04-03T14:38:10;4.37;;;3.10;;
75450;SDS011;64029;48.244;9.188;2023-04-03T14:40:49;4.50;;;3.67;;
75450;SDS011;64029;48.244;9.188;2023-04-03T14:43:16;4.70;;;2.90;;
75450;SDS011;64029;48.244;9.188;2023-04-03T14:45:45;4.03;;;3.43;;
75450;SDS011;64029;48.244;9.188;2023-04-03T14:48:12;3.00;;;2.70;;
75450;SDS011;64029;48.244;9.188;2023-04-03T14:50:44;4.90;;;2.73;;
75450;SDS011;64029;48.244;9.188;2023-04-03T14:53:11;3.50;;;3.20;;
75450;SDS011;64029;48.244;9.188;2023-04-03T14:55:41;3.40;;;2.87;;
75450;SDS011;64029;48.244;9.188;2023-04-03T14:58:12;6.30;;;4.00;;
75450;SDS011;64029;48.244;9.188;2023-04-03T15:00:43;3.53;;;3.13;;
75450;SDS011;64029;48.244;9.188;2023-04-03T15:03:14;4.40;;;3.83;;
75450;SDS011;64029;48.244;9.188;2023-04-03T15:05:43;4.63;;;3.57;;
75450;SDS011;64029;48.244;9.188;2023-04-03T15:08:18;4.27;;;3.30;;
75450;SDS011;64029;48.244;9.188;2023-04-03T15:10:48;5.50;;;3.43;;
75450;SDS011;64029;48.244;9.188;2023-04-03T15:13:17;3.90;;;3.50;;
75450;SDS011;64029;48.244;9.188;2023-04-03T15:15:45;5.73;;;4.33;;
75450;SDS011;64029;48.244;9.188;2023-04-03T15:18:14;6.33;;;4.13;;
75450;SDS011;64029;48.244;9.188;2023-04-03T15:20:43;3.67;;;3.33;;
75450;SDS011;64029;48.244;9.188;2023-04-03T15:23:11;5.90;;;3.63;;
75450;SDS011;64029;48.244;9.188;2023-04-03T15:25:39;7.73;;;3.77;;
75450;SDS011;64029;48.244;9.188;2023-04-03T15:28:08;4.07;;;3.13;;